createdAt,value
2022-09-24T15:27:42.224Z,2.87
2022-09-24T15:30:14.281Z,3.78
2022-09-24T15:32:42.733Z,8.25
2022-09-24T15:35:15.141Z,2.92
2022-09-24T15:37:44.312Z,2.65
2022-09-24T15:40:22.750Z,3.30
2022-09-24T15:42:53.313Z,5.22
2022-09-24T15:45:23.166Z,4.43
2022-09-24T15:47:52.291Z,3.55
2022-09-24T15:50:22.056Z,4.32
2022-09-24T15:52:52.184Z,2.70
2022-09-24T15:55:22.215Z,3.20
2022-09-24T15:57:50.748Z,3.65
2022-09-24T16:00:22.347Z,3.25
2022-09-24T16:02:52.890Z,3.15
2022-09-24T16:05:21.551Z,10.00
2022-09-24T16:07:49.770Z,4.68
2022-09-24T16:10:18.473Z,3.40
2022-09-24T16:12:46.616Z,5.47
2022-09-24T16:15:16.517Z,5.15
2022-09-24T16:17:49.907Z,4.72
2022-09-24T16:20:18.169Z,3.92
2022-09-24T16:22:46.270Z,8.13
2022-09-24T16:25:14.409Z,5.15
2022-09-24T16:27:42.740Z,3.67
2022-09-24T16:30:11.841Z,3.25
2022-09-24T16:32:40.023Z,5.13
2022-09-24T16:35:11.198Z,3.67
2022-09-24T16:37:39.297Z,4.78
2022-09-24T16:40:08.700Z,3.30
2022-09-24T16:42:36.919Z,5.45
2022-09-24T16:45:07.091Z,5.20
2022-09-24T16:47:35.336Z,4.82
2022-09-24T16:50:03.429Z,10.38
2022-09-24T16:52:33.075Z,4.13
2022-09-24T16:55:01.367Z,5.35
2022-09-24T16:57:29.476Z,6.50
2022-09-24T16:59:57.708Z,8.57
2022-09-24T17:02:25.977Z,4.50
2022-09-24T17:04:59.456Z,7.63
2022-09-24T17:07:32.911Z,4.45
2022-09-24T17:10:16.076Z,5.00
2022-09-24T17:12:46.384Z,4.78
2022-09-24T17:15:15.501Z,6.05
2022-09-24T17:17:49.509Z,5.47
2022-09-24T17:20:18.952Z,6.93
2022-09-24T17:22:49.857Z,12.27
2022-09-24T17:25:18.148Z,9.38
2022-09-24T17:27:46.207Z,6.95
2022-09-24T17:30:15.057Z,9.65
2022-09-24T17:32:43.182Z,5.10
2022-09-24T17:35:11.456Z,9.05
2022-09-24T17:37:39.665Z,16.38
2022-09-24T17:40:11.076Z,20.17
2022-09-24T17:42:40.510Z,22.50
2022-09-24T17:45:10.233Z,23.42
2022-09-24T17:47:52.208Z,20.27
2022-09-24T17:50:20.290Z,22.30
2022-09-24T17:52:48.424Z,18.65
2022-09-24T17:55:18.077Z,21.77
2022-09-24T17:57:46.243Z,20.00
2022-09-24T18:00:15.131Z,18.45
2022-09-24T18:02:43.319Z,30.60
2022-09-24T18:05:11.857Z,22.80
2022-09-24T18:07:40.023Z,24.85
2022-09-24T18:10:09.134Z,16.98
2022-09-24T18:12:38.664Z,18.95
2022-09-24T18:15:07.490Z,16.67
2022-09-24T18:17:35.653Z,13.85
2022-09-24T18:20:04.362Z,13.20
2022-09-24T18:22:32.684Z,13.55
2022-09-24T18:25:05.724Z,11.70
2022-09-24T18:27:36.428Z,12.77
2022-09-24T18:30:07.624Z,12.27
2022-09-24T18:32:37.114Z,14.20
2022-09-24T18:35:06.290Z,13.13
2022-09-24T18:37:36.135Z,15.57
2022-09-24T18:40:05.466Z,12.18
2022-09-24T18:42:34.951Z,19.52
2022-09-24T18:45:03.667Z,15.50
2022-09-24T18:47:33.386Z,11.15
2022-09-24T18:50:02.008Z,13.65
2022-09-24T18:52:30.265Z,11.55
2022-09-24T18:54:58.529Z,16.15
2022-09-24T18:57:27.129Z,16.58
2022-09-24T18:59:55.443Z,15.38
2022-09-24T19:02:25.337Z,20.13
2022-09-24T19:04:56.221Z,17.30
2022-09-24T19:07:24.493Z,17.42
2022-09-24T19:09:53.368Z,19.38
2022-09-24T19:12:21.824Z,17.33
2022-09-24T19:14:50.446Z,19.00
2022-09-24T19:17:19.224Z,19.92
2022-09-24T19:19:52.108Z,18.92
2022-09-24T19:22:22.562Z,28.20
2022-09-24T19:24:51.096Z,15.30
2022-09-24T19:27:19.969Z,16.17
2022-09-24T19:29:50.216Z,17.98
2022-09-24T19:32:18.387Z,16.00
2022-09-24T19:34:46.476Z,17.17
2022-09-24T19:37:14.561Z,19.20
2022-09-24T19:39:44.480Z,16.73
2022-09-24T19:42:12.680Z,20.15
2022-09-24T19:44:41.784Z,18.33
2022-09-24T19:47:09.900Z,19.52
2022-09-24T19:49:38.356Z,100.07
2022-09-24T19:52:07.468Z,121.32
2022-09-24T19:54:35.672Z,116.60
2022-09-24T19:57:05.381Z,69.45
2022-09-24T19:59:33.586Z,68.15
2022-09-24T20:02:02.058Z,25.20
2022-09-24T20:04:30.332Z,23.45
2022-09-24T20:07:02.334Z,15.40
2022-09-24T20:09:33.279Z,18.23
2022-09-24T20:12:04.633Z,18.25
2022-09-24T20:14:34.209Z,17.45
2022-09-24T20:17:02.511Z,19.75
2022-09-24T20:19:30.816Z,23.83
2022-09-24T20:22:00.390Z,19.50
2022-09-24T20:24:28.886Z,20.17
2022-09-24T20:27:14.411Z,16.42
2022-09-24T20:29:46.969Z,16.48
2022-09-24T20:32:16.464Z,19.63
2022-09-24T20:34:44.680Z,24.98
2022-09-24T20:37:12.965Z,16.85
2022-09-24T20:39:41.266Z,21.58
2022-09-24T20:42:09.469Z,19.63
2022-09-24T20:44:37.787Z,19.30
2022-09-24T20:47:07.425Z,18.48
2022-09-24T20:49:35.777Z,22.17
2022-09-24T20:52:05.767Z,19.27
2022-09-24T20:54:34.721Z,17.25
2022-09-24T20:57:03.471Z,18.38
2022-09-24T20:59:31.609Z,21.15
2022-09-24T21:02:00.004Z,19.05
2022-09-24T21:04:29.614Z,15.98
2022-09-24T21:06:57.760Z,20.13
2022-09-24T21:09:25.942Z,17.85
2022-09-24T21:11:54.522Z,16.17
2022-09-24T21:14:23.373Z,18.85
2022-09-24T21:16:55.190Z,18.30
2022-09-24T21:19:24.552Z,15.05
2022-09-24T21:21:54.162Z,19.00
2022-09-24T21:24:26.315Z,17.42
2022-09-24T21:26:54.664Z,21.33
2022-09-24T21:29:25.547Z,17.20
2022-09-24T21:31:53.717Z,17.20
2022-09-24T21:34:22.258Z,18.35
2022-09-24T21:36:52.173Z,19.30
2022-09-24T21:39:24.037Z,21.85
2022-09-24T21:41:55.076Z,16.90
2022-09-24T21:44:23.260Z,17.60
2022-09-24T21:46:52.420Z,18.80
2022-09-24T21:49:22.832Z,17.15
2022-09-24T21:51:52.577Z,14.98
2022-09-24T21:54:22.458Z,19.42
2022-09-24T21:56:50.896Z,18.20
2022-09-24T21:59:36.386Z,16.20
2022-09-24T22:02:05.080Z,19.65
2022-09-24T22:04:33.734Z,18.85
2022-09-24T22:07:02.512Z,15.75
2022-09-24T22:09:33.140Z,16.77
2022-09-24T22:12:02.319Z,17.98
2022-09-24T22:14:30.653Z,17.90
2022-09-24T22:16:58.950Z,16.63
2022-09-24T22:19:27.282Z,17.30
2022-09-24T22:21:55.411Z,17.55
2022-09-24T22:24:23.561Z,14.73
2022-09-24T22:26:54.151Z,19.42
2022-09-24T22:29:23.021Z,18.20
2022-09-24T22:31:51.171Z,17.02
2022-09-24T22:34:37.016Z,20.17
2022-09-24T22:37:07.025Z,21.17
2022-09-24T22:39:36.144Z,17.88
2022-09-24T22:42:06.324Z,17.50
2022-09-24T22:44:34.559Z,16.95
2022-09-24T22:47:02.744Z,22.73
2022-09-24T22:49:31.817Z,20.83
2022-09-24T22:52:00.322Z,18.40
2022-09-24T22:54:28.499Z,17.45
2022-09-24T22:56:56.965Z,18.88
2022-09-24T22:59:26.733Z,21.52
2022-09-24T23:01:55.004Z,20.00
2022-09-24T23:04:23.860Z,26.25
2022-09-24T23:06:52.044Z,21.02
2022-09-24T23:09:20.775Z,23.58
2022-09-24T23:11:48.909Z,18.70
2022-09-24T23:14:17.735Z,16.55
2022-09-24T23:16:47.783Z,18.27
2022-09-24T23:19:17.766Z,20.17
2022-09-24T23:21:46.096Z,19.40
2022-09-24T23:24:16.653Z,15.00
2022-09-24T23:26:45.157Z,28.25
2022-09-24T23:29:14.312Z,15.13
2022-09-24T23:31:42.957Z,14.20
2022-09-24T23:34:14.524Z,14.18
2022-09-24T23:36:45.271Z,15.88
2022-09-24T23:39:13.576Z,13.32
2022-09-24T23:41:42.102Z,13.88
2022-09-24T23:44:10.445Z,12.52
2022-09-24T23:46:38.776Z,13.00
2022-09-24T23:49:06.932Z,13.30
2022-09-24T23:51:36.523Z,15.30
2022-09-24T23:54:04.891Z,12.02
2022-09-24T23:56:33.050Z,14.57
2022-09-24T23:59:01.393Z,10.23
